createdAt,value
2016-10-02T11:42:20.373Z,665
2016-10-02T11:43:31.411Z,650
2016-10-02T11:44:42.442Z,530
2016-10-02T11:45:53.482Z,480
2016-10-02T11:47:04.517Z,530
2016-10-02T11:48:15.620Z,475
2016-10-02T11:49:26.674Z,420
2016-10-02T11:50:37.722Z,350
2016-10-02T11:51:49.014Z,275
2016-10-02T11:53:00.088Z,280
2016-10-02T11:54:12.532Z,330
2016-10-02T11:55:24.173Z,350
2016-10-02T11:56:35.218Z,410
2016-10-02T11:57:46.267Z,355
2016-10-02T11:58:57.308Z,320
2016-10-02T12:00:08.397Z,280
2016-10-02T12:01:19.440Z,220
2016-10-02T12:02:32.709Z,190
2016-10-02T12:03:43.901Z,200
2016-10-02T12:04:55.139Z,255
2016-10-02T12:06:06.236Z,315
2016-10-02T12:07:17.274Z,325
2016-10-02T12:08:28.314Z,310
2016-10-02T12:09:42.519Z,310
2016-10-02T12:10:56.524Z,305
2016-10-02T12:12:07.910Z,290
2016-10-02T12:13:18.969Z,275
2016-10-02T12:14:30.211Z,245
2016-10-02T12:15:41.508Z,220
2016-10-02T12:16:52.609Z,185
2016-10-02T12:18:03.855Z,170
2016-10-02T12:19:14.898Z,170
2016-10-02T12:20:25.942Z,165
2016-10-02T12:21:36.980Z,175
2016-10-02T12:22:50.467Z,205
2016-10-02T12:24:02.116Z,235
2016-10-02T12:25:13.161Z,265
2016-10-02T12:26:24.409Z,300
2016-10-02T12:27:36.545Z,345
2016-10-02T12:28:48.192Z,430
2016-10-02T12:29:59.231Z,735
2016-10-02T12:31:10.279Z,815
2016-10-02T12:32:21.326Z,660
2016-10-02T12:33:32.371Z,540
2016-10-02T12:34:45.728Z,365
2016-10-02T12:35:56.775Z,385
2016-10-02T12:37:08.016Z,525
2016-10-02T12:38:20.075Z,475
2016-10-02T12:39:31.335Z,335
2016-10-02T12:40:42.624Z,360
2016-10-02T12:41:55.930Z,320
2016-10-02T12:43:07.186Z,280
2016-10-02T12:44:18.221Z,235
2016-10-02T12:45:29.305Z,195
2016-10-02T12:46:40.405Z,230
2016-10-02T12:47:51.458Z,265
2016-10-02T12:49:02.707Z,345
2016-10-02T12:50:13.756Z,375
2016-10-02T12:51:24.802Z,340
2016-10-02T12:52:35.893Z,405
2016-10-02T12:53:46.941Z,300
2016-10-02T12:54:57.984Z,240
2016-10-02T12:56:09.023Z,210
2016-10-02T12:57:20.081Z,220
2016-10-02T12:58:31.487Z,220
2016-10-02T12:59:42.551Z,215
2016-10-02T13:00:53.595Z,215
2016-10-02T13:02:05.061Z,190
2016-10-02T13:03:18.309Z,165
2016-10-02T13:04:29.909Z,140
2016-10-02T13:05:40.956Z,265
2016-10-02T13:06:52.001Z,420
2016-10-02T13:08:03.063Z,420
2016-10-02T13:09:14.125Z,415
2016-10-02T13:10:25.209Z,405
2016-10-02T13:11:36.462Z,340
2016-10-02T13:12:47.502Z,320
2016-10-02T13:13:58.558Z,300
2016-10-02T13:15:09.608Z,285
2016-10-02T13:16:20.703Z,275
2016-10-02T13:17:31.954Z,260
2016-10-02T13:18:42.991Z,230
2016-10-02T13:19:54.041Z,205
2016-10-02T13:21:05.076Z,185
2016-10-02T13:22:16.165Z,170
2016-10-02T13:23:27.212Z,160
2016-10-02T13:24:38.874Z,140
2016-10-02T13:25:49.917Z,125
2016-10-02T13:27:01.165Z,115
2016-10-02T13:28:12.252Z,110
2016-10-02T13:29:23.514Z,110
2016-10-02T13:30:34.759Z,110
2016-10-02T13:31:45.809Z,105
2016-10-02T13:32:59.848Z,105
2016-10-02T13:34:11.688Z,110
2016-10-02T13:35:22.932Z,110
2016-10-02T13:36:36.368Z,110
2016-10-02T13:37:47.857Z,120
2016-10-02T13:38:58.893Z,140
2016-10-02T13:40:09.987Z,170
2016-10-02T13:41:21.036Z,200
2016-10-02T13:42:32.080Z,235
2016-10-02T13:43:43.121Z,280
2016-10-02T13:44:54.170Z,310
2016-10-02T13:46:05.263Z,305
2016-10-02T13:47:18.612Z,280
2016-10-02T13:48:29.670Z,230
2016-10-02T13:49:40.717Z,205
2016-10-02T13:50:51.761Z,190
2016-10-02T13:52:02.857Z,195
2016-10-02T13:53:15.196Z,210
2016-10-02T13:54:26.236Z,225
2016-10-02T13:55:37.478Z,230
2016-10-02T13:56:48.511Z,230
2016-10-02T13:57:59.614Z,220
2016-10-02T13:59:11.929Z,205
2016-10-02T14:00:23.169Z,200
2016-10-02T14:01:34.204Z,200
2016-10-02T14:02:47.315Z,205
2016-10-02T14:03:58.405Z,220
2016-10-02T14:05:09.451Z,215
2016-10-02T14:06:20.498Z,215
2016-10-02T14:07:31.551Z,220
2016-10-02T14:08:42.589Z,220
2016-10-02T14:09:53.740Z,210
2016-10-02T14:11:05.001Z,190
2016-10-02T14:12:16.244Z,170
2016-10-02T14:13:27.286Z,150
2016-10-02T14:14:38.342Z,130
2016-10-02T14:15:52.325Z,105
2016-10-02T14:17:03.737Z,95
2016-10-02T14:18:14.780Z,95
2016-10-02T14:19:25.842Z,90
2016-10-02T14:20:38.020Z,85
2016-10-02T14:21:50.001Z,80
2016-10-02T14:23:01.263Z,75
2016-10-02T14:24:12.302Z,70
2016-10-02T14:25:23.350Z,70
2016-10-02T14:26:34.415Z,70
2016-10-02T14:27:45.579Z,70
2016-10-02T14:28:56.624Z,80
2016-10-02T14:30:07.677Z,90
2016-10-02T14:31:18.705Z,95
2016-10-02T14:32:29.947Z,105
2016-10-02T14:33:41.038Z,115
2016-10-02T14:34:52.083Z,95
2016-10-02T14:36:03.128Z,90
2016-10-02T14:37:16.997Z,95
2016-10-02T14:38:28.516Z,95
2016-10-02T14:39:39.814Z,100
2016-10-02T14:40:50.939Z,100
2016-10-02T14:42:01.982Z,95
2016-10-02T14:43:13.033Z,85
2016-10-02T14:44:24.079Z,80
2016-10-02T14:45:35.177Z,80
2016-10-02T14:46:46.419Z,80
2016-10-02T14:47:57.464Z,80
2016-10-02T14:49:08.511Z,80
2016-10-02T14:50:19.767Z,80
2016-10-02T14:51:31.135Z,75
2016-10-02T14:52:42.182Z,70
2016-10-02T14:53:53.222Z,70
2016-10-02T14:55:04.469Z,70
2016-10-02T14:56:15.510Z,75
2016-10-02T14:57:26.604Z,70
2016-10-02T14:58:37.656Z,75
2016-10-02T14:59:48.909Z,85
2016-10-02T15:00:59.945Z,90
2016-10-02T15:02:11.203Z,95
2016-10-02T15:03:24.633Z,105
2016-10-02T15:04:36.513Z,115
2016-10-02T15:05:47.553Z,120
2016-10-02T15:06:58.593Z,135
2016-10-02T15:08:09.634Z,155
2016-10-02T15:09:20.924Z,175
2016-10-02T15:10:31.965Z,190
2016-10-02T15:11:43.389Z,210
2016-10-02T15:12:54.888Z,220
2016-10-02T15:14:05.937Z,230
2016-10-02T15:15:19.044Z,235
2016-10-02T15:16:30.497Z,230
2016-10-02T15:17:41.529Z,225
2016-10-02T15:18:52.777Z,215
2016-10-02T15:20:03.823Z,215
2016-10-02T15:21:15.111Z,220
2016-10-02T15:22:26.160Z,225
2016-10-02T15:23:37.206Z,220
2016-10-02T15:24:48.257Z,220
2016-10-02T15:25:59.311Z,215
2016-10-02T15:27:10.395Z,210
2016-10-02T15:28:21.435Z,200
2016-10-02T15:29:32.474Z,190
2016-10-02T15:30:43.515Z,180
2016-10-02T15:31:54.554Z,170
2016-10-02T15:33:05.642Z,160
2016-10-02T15:34:16.688Z,155
2016-10-02T15:35:27.741Z,150
2016-10-02T15:36:38.780Z,145
2016-10-02T15:37:49.813Z,135
2016-10-02T15:39:00.899Z,125
2016-10-02T15:40:12.145Z,120
2016-10-02T15:41:23.190Z,110
2016-10-02T15:42:34.231Z,100
2016-10-02T15:43:45.266Z,90
2016-10-02T15:44:56.353Z,90
2016-10-02T15:46:07.390Z,85
2016-10-02T15:47:21.390Z,85
2016-10-02T15:48:32.601Z,80
2016-10-02T15:49:43.641Z,75
2016-10-02T15:50:54.729Z,70
2016-10-02T15:52:05.770Z,60
2016-10-02T15:53:17.508Z,55
2016-10-02T15:54:28.553Z,50
2016-10-02T15:55:39.590Z,50
2016-10-02T15:56:50.972Z,50
2016-10-02T15:58:02.218Z,50
2016-10-02T15:59:13.257Z,50
2016-10-02T16:00:24.498Z,50
2016-10-02T16:01:35.535Z,50
2016-10-02T16:02:46.835Z,50
2016-10-02T16:03:57.872Z,50
2016-10-02T16:05:08.899Z,55
2016-10-02T16:06:22.162Z,55
2016-10-02T16:07:34.233Z,55
2016-10-02T16:08:45.347Z,55
2016-10-02T16:09:56.390Z,60
2016-10-02T16:11:07.792Z,60
